sensor_id;sensor_type;location;lat;lon;timestamp;pressure;altitude;pressure_sealevel;temperature;humidity
41632;BME280;37452;51.938;4.624;2023-06-04T00:02:01;77529.06;;;-142.75;100.00
41632;BME280;37452;51.938;4.624;2023-06-04T00:04:26;77550.72;;;-142.75;100.00
41632;BME280;37452;51.938;4.624;2023-06-04T00:06:51;77544.81;;;-142.75;100.00
41632;BME280;37452;51.938;4.624;2023-06-04T00:09:17;77536.94;;;-142.75;100.00
41632;BME280;37452;51.938;4.624;2023-06-04T00:11:42;77548.75;;;-142.75;100.00
41632;BME280;37452;51.938;4.624;2023-06-04T00:14:07;77558.59;;;-142.75;100.00
41632;BME280;37452;51.938;4.624;2023-06-04T00:16:33;77558.59;;;-142.75;100.00
41632;BME280;37452;51.938;4.624;2023-06-04T00:19:02;77548.75;;;-142.75;100.00
41632;BME280;37452;51.938;4.624;2023-06-04T00:21:28;77556.63;;;-142.75;100.00
41632;BME280;37452;51.938;4.624;2023-06-04T00:23:53;77550.72;;;-142.75;100.00
41632;BME280;37452;51.938;4.624;2023-06-04T00:26:19;77558.59;;;-142.75;100.00
41632;BME280;37452;51.938;4.624;2023-06-04T00:28:44;77570.41;;;-142.75;100.00
41632;BME280;37452;51.938;4.624;2023-06-04T00:31:09;77570.41;;;-142.75;100.00
41632;BME280;37452;51.938;4.624;2023-06-04T00:33:35;77570.41;;;-142.75;100.00
41632;BME280;37452;51.938;4.624;2023-06-04T00:36:01;77578.28;;;-142.75;100.00
41632;BME280;37452;51.938;4.624;2023-06-04T00:38:26;77576.31;;;-142.75;100.00
41632;BME280;37452;51.938;4.624;2023-06-04T00:40:52;77605.84;;;-142.75;100.00
41632;BME280;37452;51.938;4.624;2023-06-04T00:43:17;77605.84;;;-142.75;100.00
41632;BME280;37452;51.938;4.624;2023-06-04T00:45:44;77603.88;;;-142.75;100.00
41632;BME280;37452;51.938;4.624;2023-06-04T00:48:10;77605.84;;;-142.75;100.00
41632;BME280;37452;51.938;4.624;2023-06-04T00:50:35;77601.91;;;-142.75;100.00
41632;BME280;37452;51.938;4.624;2023-06-04T00:53:04;77613.72;;;-142.75;100.00
41632;BME280;37452;51.938;4.624;2023-06-04T00:55:30;77611.75;;;-142.75;100.00
41632;BME280;37452;51.938;4.624;2023-06-04T00:57:56;77617.66;;;-142.75;100.00
41632;BME280;37452;51.938;4.624;2023-06-04T01:00:22;77621.59;;;-142.75;100.00
41632;BME280;37452;51.938;4.624;2023-06-04T01:02:48;77645.22;;;-142.75;100.00
41632;BME280;37452;51.938;4.624;2023-06-04T01:05:57;77633.41;;;-142.75;100.00
41632;BME280;37452;51.938;4.624;2023-06-04T01:08:26;77641.28;;;-142.75;100.00
41632;BME280;37452;51.938;4.624;2023-06-04T01:10:53;77653.09;;;-142.75;100.00
41632;BME280;37452;51.938;4.624;2023-06-04T01:13:19;77643.25;;;-142.75;100.00
41632;BME280;37452;51.938;4.624;2023-06-04T01:15:44;77660.97;;;-142.75;100.00
41632;BME280;37452;51.938;4.624;2023-06-04T01:18:11;77655.06;;;-142.75;100.00
41632;BME280;37452;51.938;4.624;2023-06-04T01:20:49;77668.84;;;-142.75;100.00
41632;BME280;37452;51.938;4.624;2023-06-04T01:23:23;77670.81;;;-142.75;100.00
41632;BME280;37452;51.938;4.624;2023-06-04T01:25:52;77659.00;;;-142.75;100.00
41632;BME280;37452;51.938;4.624;2023-06-04T01:28:19;77660.97;;;-142.75;100.00
41632;BME280;37452;51.938;4.624;2023-06-04T01:30:46;77672.78;;;-142.75;100.00
41632;BME280;37452;51.938;4.624;2023-06-04T01:33:17;77657.03;;;-142.75;100.00
41632;BME280;37452;51.938;4.624;2023-06-04T01:35:43;77676.72;;;-142.75;100.00
41632;BME280;37452;51.938;4.624;2023-06-04T01:38:09;77676.72;;;-142.75;100.00
41632;BME280;37452;51.938;4.624;2023-06-04T01:40:35;77692.47;;;-142.75;100.00
41632;BME280;37452;51.938;4.624;2023-06-04T01:43:01;77688.53;;;-142.75;100.00
41632;BME280;37452;51.938;4.624;2023-06-04T01:45:27;77684.59;;;-142.75;100.00
41632;BME280;37452;51.938;4.624;2023-06-04T01:47:53;77692.47;;;-142.75;100.00
41632;BME280;37452;51.938;4.624;2023-06-04T01:50:19;77688.53;;;-142.75;100.00
41632;BME280;37452;51.938;4.624;2023-06-04T01:52:45;77696.41;;;-142.75;100.00
41632;BME280;37452;51.938;4.624;2023-06-04T01:55:12;77696.41;;;-142.75;100.00
41632;BME280;37452;51.938;4.624;2023-06-04T01:57:38;77716.09;;;-142.75;100.00
41632;BME280;37452;51.938;4.624;2023-06-04T02:00:05;77708.22;;;-142.75;100.00
41632;BME280;37452;51.938;4.624;2023-06-04T02:02:33;77722.00;;;-142.75;100.00
41632;BME280;37452;51.938;4.624;2023-06-04T02:04:58;77716.09;;;-142.75;100.00
41632;BME280;37452;51.938;4.624;2023-06-04T02:07:24;77725.97;;;-142.75;100.00
41632;BME280;37452;51.938;4.624;2023-06-04T02:09:51;77723.97;;;-142.75;100.00
41632;BME280;37452;51.938;4.624;2023-06-04T02:12:16;77731.88;;;-142.75;100.00
41632;BME280;37452;51.938;4.624;2023-06-04T02:14:42;77725.97;;;-142.75;100.00
41632;BME280;37452;51.938;4.624;2023-06-04T02:17:08;77737.78;;;-142.75;100.00
41632;BME280;37452;51.938;4.624;2023-06-04T02:19:42;77743.69;;;-142.75;100.00
41632;BME280;37452;51.938;4.624;2023-06-04T02:22:18;77739.75;;;-142.75;100.00
41632;BME280;37452;51.938;4.624;2023-06-04T02:24:44;77741.72;;;-142.75;100.00
41632;BME280;37452;51.938;4.624;2023-06-04T02:27:10;77747.63;;;-142.75;100.00
41632;BME280;37452;51.938;4.624;2023-06-04T02:29:36;77735.81;;;-142.75;100.00
41632;BME280;37452;51.938;4.624;2023-06-04T02:32:05;77747.63;;;-142.75;100.00
41632;BME280;37452;51.938;4.624;2023-06-04T02:34:31;77751.56;;;-142.75;100.00
41632;BME280;37452;51.938;4.624;2023-06-04T02:36:56;77753.53;;;-142.75;100.00
41632;BME280;37452;51.938;4.624;2023-06-04T02:39:23;77755.50;;;-142.75;100.00
41632;BME280;37452;51.938;4.624;2023-06-04T02:41:49;77767.31;;;-142.75;100.00
41632;BME280;37452;51.938;4.624;2023-06-04T02:44:14;77777.16;;;-142.75;100.00
41632;BME280;37452;51.938;4.624;2023-06-04T02:46:40;77771.25;;;-142.75;100.00
41632;BME280;37452;51.938;4.624;2023-06-04T02:49:05;77767.31;;;-142.75;100.00
41632;BME280;37452;51.938;4.624;2023-06-04T02:51:30;77767.31;;;-142.75;100.00
41632;BME280;37452;51.938;4.624;2023-06-04T02:53:56;77773.22;;;-142.75;100.00
41632;BME280;37452;51.938;4.624;2023-06-04T02:56:21;77767.31;;;-142.75;100.00
41632;BME280;37452;51.938;4.624;2023-06-04T02:58:50;77763.38;;;-142.75;100.00
41632;BME280;37452;51.938;4.624;2023-06-04T03:01:20;77773.22;;;-142.75;100.00
41632;BME280;37452;51.938;4.624;2023-06-04T03:03:48;77787.00;;;-142.75;100.00
41632;BME280;37452;51.938;4.624;2023-06-04T03:06:15;77783.06;;;-142.75;100.00
41632;BME280;37452;51.938;4.624;2023-06-04T03:08:41;77775.19;;;-142.75;100.00
41632;BME280;37452;51.938;4.624;2023-06-04T03:11:07;77779.13;;;-142.75;100.00
41632;BME280;37452;51.938;4.624;2023-06-04T03:13:32;77781.09;;;-142.75;100.00
41632;BME280;37452;51.938;4.624;2023-06-04T03:15:58;77788.97;;;-142.75;100.00
41632;BME280;37452;51.938;4.624;2023-06-04T03:18:29;77775.19;;;-142.75;100.00
41632;BME280;37452;51.938;4.624;2023-06-04T03:20:55;77783.06;;;-142.75;100.00
41632;BME280;37452;51.938;4.624;2023-06-04T03:23:21;77781.09;;;-142.75;100.00
41632;BME280;37452;51.938;4.624;2023-06-04T03:25:47;77787.00;;;-142.75;100.00
41632;BME280;37452;51.938;4.624;2023-06-04T03:28:13;77794.88;;;-142.75;100.00
41632;BME280;37452;51.938;4.624;2023-06-04T03:30:40;77790.94;;;-142.75;100.00
41632;BME280;37452;51.938;4.624;2023-06-04T03:33:05;77781.09;;;-142.75;100.00
41632;BME280;37452;51.938;4.624;2023-06-04T03:35:31;77796.84;;;-142.75;100.00
41632;BME280;37452;51.938;4.624;2023-06-04T03:37:56;77810.63;;;-142.75;100.00
41632;BME280;37452;51.938;4.624;2023-06-04T03:40:21;77796.84;;;-142.75;100.00
41632;BME280;37452;51.938;4.624;2023-06-04T03:42:47;77808.66;;;-142.75;100.00
41632;BME280;37452;51.938;4.624;2023-06-04T03:45:12;77818.50;;;-142.75;100.00
41632;BME280;37452;51.938;4.624;2023-06-04T03:47:38;77812.59;;;-142.75;100.00
41632;BME280;37452;51.938;4.624;2023-06-04T03:50:05;77810.63;;;-142.75;100.00
41632;BME280;37452;51.938;4.624;2023-06-04T03:52:30;77808.66;;;-142.75;100.00
41632;BME280;37452;51.938;4.624;2023-06-04T03:54:56;77810.63;;;-142.75;100.00
41632;BME280;37452;51.938;4.624;2023-06-04T03:57:22;77816.53;;;-142.75;100.00
41632;BME280;37452;51.938;4.624;2023-06-04T03:59:47;77812.59;;;-142.75;100.00
41632;BME280;37452;51.938;4.624;2023-06-04T04:02:12;77808.66;;;-142.75;100.00
41632;BME280;37452;51.938;4.624;2023-06-04T04:04:38;77806.69;;;-142.75;100.00
41632;BME280;37452;51.938;4.624;2023-06-04T04:07:03;77814.56;;;-142.75;100.00
41632;BME280;37452;51.938;4.624;2023-06-04T04:09:28;77810.63;;;-142.75;100.00
41632;BME280;37452;51.938;4.624;2023-06-04T04:11:54;77798.81;;;-142.75;100.00
41632;BME280;37452;51.938;4.624;2023-06-04T04:14:19;77798.81;;;-142.75;100.00
41632;BME280;37452;51.938;4.624;2023-06-04T04:16:44;77794.88;;;-142.75;100.00
41632;BME280;37452;51.938;4.624;2023-06-04T04:19:10;77804.72;;;-142.75;100.00
41632;BME280;37452;51.938;4.624;2023-06-04T04:21:37;77790.94;;;-142.75;100.00
41632;BME280;37452;51.938;4.624;2023-06-04T04:24:03;77775.19;;;-142.75;100.00
41632;BME280;37452;51.938;4.624;2023-06-04T04:26:28;77775.19;;;-142.75;100.00
41632;BME280;37452;51.938;4.624;2023-06-04T04:28:55;77763.38;;;-142.75;100.00
41632;BME280;37452;51.938;4.624;2023-06-04T04:31:26;77751.56;;;-142.75;100.00
41632;BME280;37452;51.938;4.624;2023-06-04T04:33:54;77749.59;;;-142.75;100.00
41632;BME280;37452;51.938;4.624;2023-06-04T04:36:20;77735.81;;;-142.75;100.00
41632;BME280;37452;51.938;4.624;2023-06-04T04:38:45;77727.94;;;-142.75;100.00
41632;BME280;37452;51.938;4.624;2023-06-04T04:41:10;77716.09;;;-142.75;100.00
41632;BME280;37452;51.938;4.624;2023-06-04T04:43:37;77710.19;;;-142.75;100.00
41632;BME280;37452;51.938;4.624;2023-06-04T04:46:07;77688.53;;;-142.75;100.00
41632;BME280;37452;51.938;4.624;2023-06-04T04:48:32;77672.78;;;-142.75;100.00
41632;BME280;37452;51.938;4.624;2023-06-04T04:50:58;77672.78;;;-142.75;100.00
41632;BME280;37452;51.938;4.624;2023-06-04T04:53:23;77682.63;;;-142.75;100.00
41632;BME280;37452;51.938;4.624;2023-06-04T04:55:48;77664.91;;;-142.75;100.00
41632;BME280;37452;51.938;4.624;2023-06-04T04:58:14;77649.16;;;-142.75;100.00
41632;BME280;37452;51.938;4.624;2023-06-04T05:00:40;77649.16;;;-142.75;100.00
41632;BME280;37452;51.938;4.624;2023-06-04T05:03:05;77629.47;;;-142.75;100.00
41632;BME280;37452;51.938;4.624;2023-06-04T05:05:32;77617.66;;;-142.75;100.00
41632;BME280;37452;51.938;4.624;2023-06-04T05:07:57;77609.78;;;-142.75;100.00
41632;BME280;37452;51.938;4.624;2023-06-04T05:10:23;77621.59;;;-142.75;100.00
41632;BME280;37452;51.938;4.624;2023-06-04T05:12:58;77605.84;;;-142.75;100.00
41632;BME280;37452;51.938;4.624;2023-06-04T05:15:25;77594.03;;;-142.75;100.00
41632;BME280;37452;51.938;4.624;2023-06-04T05:17:51;77607.81;;;-142.75;100.00
41632;BME280;37452;51.938;4.624;2023-06-04T05:20:18;77609.78;;;-142.75;100.00
41632;BME280;37452;51.938;4.624;2023-06-04T05:22:44;77580.25;;;-142.75;100.00
41632;BME280;37452;51.938;4.624;2023-06-04T05:25:11;77562.53;;;-142.75;100.00
41632;BME280;37452;51.938;4.624;2023-06-04T05:27:37;77578.28;;;-142.75;100.00
41632;BME280;37452;51.938;4.624;2023-06-04T05:30:03;77566.47;;;-142.75;100.00
41632;BME280;37452;51.938;4.624;2023-06-04T05:32:29;77542.84;;;-142.75;100.00
41632;BME280;37452;51.938;4.624;2023-06-04T05:34:56;77534.97;;;-142.75;100.00
41632;BME280;37452;51.938;4.624;2023-06-04T05:37:25;77507.41;;;-142.75;100.00
41632;BME280;37452;51.938;4.624;2023-06-04T05:39:57;77503.47;;;-142.75;100.00
41632;BME280;37452;51.938;4.624;2023-06-04T05:42:22;77509.38;;;-142.75;100.00
41632;BME280;37452;51.938;4.624;2023-06-04T05:44:48;77505.44;;;-142.75;100.00
41632;BME280;37452;51.938;4.624;2023-06-04T05:47:15;77477.88;;;-142.75;100.00
41632;BME280;37452;51.938;4.624;2023-06-04T05:49:42;77471.97;;;-142.75;100.00
41632;BME280;37452;51.938;4.624;2023-06-04T05:52:07;77468.03;;;-142.75;100.00
41632;BME280;37452;51.938;4.624;2023-06-04T05:54:35;77438.47;;;-142.75;100.00
41632;BME280;37452;51.938;4.624;2023-06-04T05:57:02;77424.69;;;-142.75;100.00
41632;BME280;37452;51.938;4.624;2023-06-04T05:59:27;77422.72;;;-142.75;100.00
41632;BME280;37452;51.938;4.624;2023-06-04T06:01:53;77420.75;;;-142.75;100.00
41632;BME280;37452;51.938;4.624;2023-06-04T06:04:18;77401.06;;;-142.75;100.00
41632;BME280;37452;51.938;4.624;2023-06-04T06:06:43;77401.06;;;-142.75;100.00
41632;BME280;37452;51.938;4.624;2023-06-04T06:09:10;77381.38;;;-142.75;100.00
41632;BME280;37452;51.938;4.624;2023-06-04T06:11:35;77369.56;;;-142.75;100.00
41632;BME280;37452;51.938;4.624;2023-06-04T06:14:01;77361.69;;;-142.75;100.00
41632;BME280;37452;51.938;4.624;2023-06-04T06:16:26;77340.03;;;-142.75;100.00
41632;BME280;37452;51.938;4.624;2023-06-04T06:18:52;77312.47;;;-142.75;100.00
41632;BME280;37452;51.938;4.624;2023-06-04T06:21:17;77304.59;;;-142.75;100.00
41632;BME280;37452;51.938;4.624;2023-06-04T06:23:43;77288.84;;;-142.75;100.00
41632;BME280;37452;51.938;4.624;2023-06-04T06:26:08;77275.06;;;-142.75;100.00
41632;BME280;37452;51.938;4.624;2023-06-04T06:28:34;77273.09;;;-142.75;100.00
41632;BME280;37452;51.938;4.624;2023-06-04T06:31:01;77255.38;;;-142.75;100.00
41632;BME280;37452;51.938;4.624;2023-06-04T06:33:26;77245.53;;;-142.75;100.00
41632;BME280;37452;51.938;4.624;2023-06-04T06:35:52;77235.69;;;-142.75;100.00
41632;BME280;37452;51.938;4.624;2023-06-04T06:38:17;77233.72;;;-142.75;100.00
41632;BME280;37452;51.938;4.624;2023-06-04T06:40:42;77219.94;;;-142.75;100.00
41632;BME280;37452;51.938;4.624;2023-06-04T06:43:08;77206.16;;;-142.75;100.00
41632;BME280;37452;51.938;4.624;2023-06-04T06:45:35;77202.22;;;-142.75;100.00
41632;BME280;37452;51.938;4.624;2023-06-04T06:48:00;77184.50;;;-142.75;100.00
41632;BME280;37452;51.938;4.624;2023-06-04T06:50:25;77172.69;;;-142.75;100.00
41632;BME280;37452;51.938;4.624;2023-06-04T06:52:51;77162.84;;;-142.75;100.00
41632;BME280;37452;51.938;4.624;2023-06-04T06:55:16;77153.00;;;-142.75;100.00
41632;BME280;37452;51.938;4.624;2023-06-04T06:57:41;77139.22;;;-142.75;100.00
41632;BME280;37452;51.938;4.624;2023-06-04T07:00:07;77121.50;;;-142.75;100.00
41632;BME280;37452;51.938;4.624;2023-06-04T07:02:33;77121.50;;;-142.75;100.00
41632;BME280;37452;51.938;4.624;2023-06-04T07:04:58;77105.75;;;-142.75;100.00
41632;BME280;37452;51.938;4.624;2023-06-04T07:07:24;77105.75;;;-142.75;99.15
41632;BME280;37452;51.938;4.624;2023-06-04T07:09:49;77101.81;;;-142.75;100.00
41632;BME280;37452;51.938;4.624;2023-06-04T07:12:15;77093.94;;;-142.75;100.00
41632;BME280;37452;51.938;4.624;2023-06-04T07:14:40;77080.16;;;-142.75;97.96
41632;BME280;37452;51.938;4.624;2023-06-04T07:17:05;77072.28;;;-142.75;99.59
41632;BME280;37452;51.938;4.624;2023-06-04T07:19:31;77046.69;;;-142.75;97.88
41632;BME280;37452;51.938;4.624;2023-06-04T07:21:56;77042.75;;;-142.75;97.58
41632;BME280;37452;51.938;4.624;2023-06-04T07:24:22;77028.97;;;-142.75;100.00
41632;BME280;37452;51.938;4.624;2023-06-04T07:26:48;77001.41;;;-142.75;98.67
41632;BME280;37452;51.938;4.624;2023-06-04T07:29:13;76975.81;;;-142.75;97.53
41632;BME280;37452;51.938;4.624;2023-06-04T07:31:39;76962.03;;;-142.75;97.20
41632;BME280;37452;51.938;4.624;2023-06-04T07:34:04;76940.38;;;-142.75;94.31
41632;BME280;37452;51.938;4.624;2023-06-04T07:36:30;76952.19;;;-142.75;93.31
41632;BME280;37452;51.938;4.624;2023-06-04T07:38:56;76916.75;;;-142.75;91.68
41632;BME280;37452;51.938;4.624;2023-06-04T07:41:21;76897.06;;;-142.75;90.38
41632;BME280;37452;51.938;4.624;2023-06-04T07:43:47;76893.13;;;-142.75;86.89
41632;BME280;37452;51.938;4.624;2023-06-04T07:46:12;76893.13;;;-142.75;86.38
41632;BME280;37452;51.938;4.624;2023-06-04T07:48:37;76885.25;;;-142.75;83.28
41632;BME280;37452;51.938;4.624;2023-06-04T07:51:03;76877.38;;;-142.75;88.37
41632;BME280;37452;51.938;4.624;2023-06-04T07:53:29;76875.41;;;-142.75;85.53
41632;BME280;37452;51.938;4.624;2023-06-04T07:55:56;76865.56;;;-142.75;83.61
41632;BME280;37452;51.938;4.624;2023-06-04T07:58:22;76871.47;;;-142.75;81.43
41632;BME280;37452;51.938;4.624;2023-06-04T08:00:47;76861.63;;;-142.75;81.68
41632;BME280;37452;51.938;4.624;2023-06-04T08:03:13;76832.09;;;-142.75;79.91
41632;BME280;37452;51.938;4.624;2023-06-04T08:05:40;76839.97;;;-142.75;82.77
41632;BME280;37452;51.938;4.624;2023-06-04T08:08:05;76820.28;;;-142.75;81.37
41632;BME280;37452;51.938;4.624;2023-06-04T08:10:31;76822.25;;;-142.75;79.08
41632;BME280;37452;51.938;4.624;2023-06-04T08:12:56;76853.75;;;-142.75;76.79
41632;BME280;37452;51.938;4.624;2023-06-04T08:15:22;76794.69;;;-142.75;80.65
41632;BME280;37452;51.938;4.624;2023-06-04T08:17:47;76786.84;;;-142.75;79.29
41632;BME280;37452;51.938;4.624;2023-06-04T08:20:13;76769.13;;;-142.75;75.82
41632;BME280;37452;51.938;4.624;2023-06-04T08:22:38;76741.56;;;-142.75;79.20
41632;BME280;37452;51.938;4.624;2023-06-04T08:25:04;76715.97;;;-142.75;78.42
41632;BME280;37452;51.938;4.624;2023-06-04T08:27:30;76698.25;;;-142.75;77.43
41632;BME280;37452;51.938;4.624;2023-06-04T08:29:56;76690.38;;;-142.75;73.65
41632;BME280;37452;51.938;4.624;2023-06-04T08:32:22;76668.72;;;-142.75;72.96
41632;BME280;37452;51.938;4.624;2023-06-04T08:34:48;76668.72;;;-142.75;74.05
41632;BME280;37452;51.938;4.624;2023-06-04T08:37:13;76672.66;;;-142.75;72.70
41632;BME280;37452;51.938;4.624;2023-06-04T08:39:38;76645.09;;;-142.75;75.91
41632;BME280;37452;51.938;4.624;2023-06-04T08:42:06;76649.03;;;-142.75;77.89
41632;BME280;37452;51.938;4.624;2023-06-04T08:44:34;76629.34;;;-142.75;76.08
41632;BME280;37452;51.938;4.624;2023-06-04T08:47:04;76586.03;;;-142.75;73.63
41632;BME280;37452;51.938;4.624;2023-06-04T08:49:40;76582.09;;;-142.75;76.32
41632;BME280;37452;51.938;4.624;2023-06-04T08:52:05;76546.66;;;-142.75;77.16
41632;BME280;37452;51.938;4.624;2023-06-04T08:54:32;76578.16;;;-142.75;74.24
41632;BME280;37452;51.938;4.624;2023-06-04T08:56:58;76582.09;;;-142.75;71.53
41632;BME280;37452;51.938;4.624;2023-06-04T08:59:27;76538.78;;;-142.75;75.05
41632;BME280;37452;51.938;4.624;2023-06-04T09:01:56;76576.19;;;-142.75;70.63
41632;BME280;37452;51.938;4.624;2023-06-04T09:04:23;76576.19;;;-142.75;71.15
41632;BME280;37452;51.938;4.624;2023-06-04T09:06:51;76601.78;;;-142.75;69.29
41632;BME280;37452;51.938;4.624;2023-06-04T09:09:18;76558.47;;;-142.75;70.49
41632;BME280;37452;51.938;4.624;2023-06-04T09:11:56;76550.59;;;-142.75;70.65
41632;BME280;37452;51.938;4.624;2023-06-04T09:14:22;76521.09;;;-142.75;71.62
41632;BME280;37452;51.938;4.624;2023-06-04T09:16:50;76503.38;;;-142.75;73.34
41632;BME280;37452;51.938;4.624;2023-06-04T09:19:17;76497.47;;;-142.75;74.37
41632;BME280;37452;51.938;4.624;2023-06-04T09:21:56;76475.81;;;-142.75;75.33
41632;BME280;37452;51.938;4.624;2023-06-04T09:24:26;76483.69;;;-142.75;70.33
41632;BME280;37452;51.938;4.624;2023-06-04T09:27:09;76487.63;;;-142.75;70.95
41632;BME280;37452;51.938;4.624;2023-06-04T09:29:35;76477.78;;;-142.75;72.24
41632;BME280;37452;51.938;4.624;2023-06-04T09:32:01;76438.41;;;-142.75;74.80
41632;BME280;37452;51.938;4.624;2023-06-04T09:34:28;76442.34;;;-142.75;76.66
41632;BME280;37452;51.938;4.624;2023-06-04T09:36:53;76408.88;;;-142.75;75.79
41632;BME280;37452;51.938;4.624;2023-06-04T09:39:19;76402.97;;;-142.75;75.72
41632;BME280;37452;51.938;4.624;2023-06-04T09:41:44;76408.88;;;-142.75;76.18
41632;BME280;37452;51.938;4.624;2023-06-04T09:44:10;76373.44;;;-142.75;76.86
41632;BME280;37452;51.938;4.624;2023-06-04T09:46:37;76363.59;;;-142.75;75.49
41632;BME280;37452;51.938;4.624;2023-06-04T09:49:04;76351.81;;;-142.75;75.44
41632;BME280;37452;51.938;4.624;2023-06-04T09:51:30;76351.81;;;-142.75;72.48
41632;BME280;37452;51.938;4.624;2023-06-04T09:53:57;76355.72;;;-142.75;70.62
41632;BME280;37452;51.938;4.624;2023-06-04T09:56:23;76355.72;;;-142.75;67.53
41632;BME280;37452;51.938;4.624;2023-06-04T09:58:49;76369.50;;;-142.75;67.91
41632;BME280;37452;51.938;4.624;2023-06-04T10:01:15;76353.78;;;-142.75;72.68
41632;BME280;37452;51.938;4.624;2023-06-04T10:03:42;76371.47;;;-142.75;68.16
41632;BME280;37452;51.938;4.624;2023-06-04T10:06:12;76367.53;;;-142.75;70.71
41632;BME280;37452;51.938;4.624;2023-06-04T10:08:42;76345.91;;;-142.75;71.76
41632;BME280;37452;51.938;4.624;2023-06-04T10:11:08;76373.44;;;-142.75;71.44
41632;BME280;37452;51.938;4.624;2023-06-04T10:13:51;76351.81;;;-142.75;71.69
41632;BME280;37452;51.938;4.624;2023-06-04T10:16:19;76328.19;;;-142.75;70.33
41632;BME280;37452;51.938;4.624;2023-06-04T10:18:45;76294.72;;;-142.75;73.66
41632;BME280;37452;51.938;4.624;2023-06-04T10:21:13;76253.38;;;-142.75;72.90
41632;BME280;37452;51.938;4.624;2023-06-04T10:23:39;76290.78;;;-142.75;70.35
41632;BME280;37452;51.938;4.624;2023-06-04T10:26:05;76261.25;;;-142.75;71.89
41632;BME280;37452;51.938;4.624;2023-06-04T10:28:32;76265.19;;;-142.75;67.46
41632;BME280;37452;51.938;4.624;2023-06-04T10:30:58;76243.53;;;-142.75;68.98
41632;BME280;37452;51.938;4.624;2023-06-04T10:33:24;76247.47;;;-142.75;67.83
41632;BME280;37452;51.938;4.624;2023-06-04T10:35:53;76282.91;;;-142.75;64.49
41632;BME280;37452;51.938;4.624;2023-06-04T10:38:19;76290.78;;;-142.75;62.32
41632;BME280;37452;51.938;4.624;2023-06-04T10:40:47;76275.03;;;-142.75;66.54
41632;BME280;37452;51.938;4.624;2023-06-04T10:43:14;76231.72;;;-142.75;71.04
41632;BME280;37452;51.938;4.624;2023-06-04T10:45:41;76286.84;;;-142.75;65.80
41632;BME280;37452;51.938;4.624;2023-06-04T10:48:08;76251.41;;;-142.75;68.74
41632;BME280;37452;51.938;4.624;2023-06-04T10:50:47;76217.94;;;-142.75;69.90
41632;BME280;37452;51.938;4.624;2023-06-04T10:53:12;76208.09;;;-142.75;71.79
41632;BME280;37452;51.938;4.624;2023-06-04T10:55:45;76233.69;;;-142.75;65.09
41632;BME280;37452;51.938;4.624;2023-06-04T10:58:11;76239.59;;;-142.75;63.85
41632;BME280;37452;51.938;4.624;2023-06-04T11:00:43;76253.38;;;-142.75;61.34
41632;BME280;37452;51.938;4.624;2023-06-04T11:03:11;76231.72;;;-142.75;63.58
41632;BME280;37452;51.938;4.624;2023-06-04T11:05:46;76223.84;;;-142.75;68.90
41632;BME280;37452;51.938;4.624;2023-06-04T11:08:14;76200.25;;;-142.75;70.20
41632;BME280;37452;51.938;4.624;2023-06-04T11:10:41;76182.53;;;-142.75;66.33
41632;BME280;37452;51.938;4.624;2023-06-04T11:13:07;76212.03;;;-142.75;69.04
41632;BME280;37452;51.938;4.624;2023-06-04T11:18:05;76184.50;;;-142.75;67.81
41632;BME280;37452;51.938;4.624;2023-06-04T11:20:31;76160.88;;;-142.75;70.27
41632;BME280;37452;51.938;4.624;2023-06-04T11:22:58;76117.56;;;-142.75;69.80
41632;BME280;37452;51.938;4.624;2023-06-04T11:25:25;76125.44;;;-142.75;61.28
41632;BME280;37452;51.938;4.624;2023-06-04T11:27:56;76168.75;;;-142.75;62.43
41632;BME280;37452;51.938;4.624;2023-06-04T11:30:22;76156.94;;;-142.75;65.90
41632;BME280;37452;51.938;4.624;2023-06-04T11:32:48;76160.88;;;-142.75;64.35
41632;BME280;37452;51.938;4.624;2023-06-04T11:35:14;76172.69;;;-142.75;66.00
41632;BME280;37452;51.938;4.624;2023-06-04T11:37:40;76204.16;;;-142.75;63.59
41632;BME280;37452;51.938;4.624;2023-06-04T11:40:18;76141.19;;;-142.75;65.68
41632;BME280;37452;51.938;4.624;2023-06-04T11:42:47;76133.31;;;-142.75;68.12
41632;BME280;37452;51.938;4.624;2023-06-04T11:45:14;76111.66;;;-142.75;62.71
41632;BME280;37452;51.938;4.624;2023-06-04T11:47:47;76088.03;;;-142.75;67.51
41632;BME280;37452;51.938;4.624;2023-06-04T11:50:13;76194.34;;;-142.75;62.46
41632;BME280;37452;51.938;4.624;2023-06-04T11:52:39;76154.97;;;-142.75;66.92
41632;BME280;37452;51.938;4.624;2023-06-04T11:55:08;76145.13;;;-142.75;63.69
41632;BME280;37452;51.938;4.624;2023-06-04T11:57:34;76105.75;;;-142.75;68.76
41632;BME280;37452;51.938;4.624;2023-06-04T12:00:01;76101.81;;;-142.75;66.37
41632;BME280;37452;51.938;4.624;2023-06-04T12:02:26;76078.19;;;-142.75;64.62
41632;BME280;37452;51.938;4.624;2023-06-04T12:04:52;76117.56;;;-142.75;58.43
41632;BME280;37452;51.938;4.624;2023-06-04T12:07:20;76086.06;;;-142.75;63.80
41632;BME280;37452;51.938;4.624;2023-06-04T12:09:49;76099.84;;;-142.75;66.09
41632;BME280;37452;51.938;4.624;2023-06-04T12:12:21;76117.56;;;-142.75;64.47
41632;BME280;37452;51.938;4.624;2023-06-04T12:14:46;76156.94;;;-142.75;62.12
41632;BME280;37452;51.938;4.624;2023-06-04T12:17:12;76135.28;;;-142.75;59.74
41632;BME280;37452;51.938;4.624;2023-06-04T12:19:50;76113.63;;;-142.75;67.85
41632;BME280;37452;51.938;4.624;2023-06-04T12:22:16;76139.22;;;-142.75;66.80
41632;BME280;37452;51.938;4.624;2023-06-04T12:24:51;76113.63;;;-142.75;68.55
41632;BME280;37452;51.938;4.624;2023-06-04T12:27:18;76082.13;;;-142.75;67.14
41632;BME280;37452;51.938;4.624;2023-06-04T12:29:54;76105.75;;;-142.75;64.01
41632;BME280;37452;51.938;4.624;2023-06-04T12:32:19;76151.03;;;-142.75;61.81
41632;BME280;37452;51.938;4.624;2023-06-04T12:34:45;76127.41;;;-142.75;64.78
41632;BME280;37452;51.938;4.624;2023-06-04T12:37:10;76111.66;;;-142.75;67.13